createdAt,value
2023-02-06T00:02:15.367Z,3.90
2023-02-06T00:05:01.184Z,3.80
2023-02-06T00:07:46.833Z,3.80
2023-02-06T00:10:32.548Z,3.70
2023-02-06T00:13:18.103Z,3.70
2023-02-06T00:16:03.690Z,3.70
2023-02-06T00:18:49.902Z,3.60
2023-02-06T00:21:35.624Z,3.60
2023-02-06T00:24:21.265Z,3.60
2023-02-06T00:27:07.500Z,3.50
2023-02-06T00:29:53.261Z,3.50
2023-02-06T00:32:38.734Z,3.50
2023-02-06T00:35:26.180Z,3.50
2023-02-06T00:38:11.628Z,3.40
2023-02-06T00:40:56.847Z,3.30
2023-02-06T00:43:43.588Z,3.30
2023-02-06T00:46:29.706Z,3.40
2023-02-06T00:49:15.294Z,3.30
2023-02-06T00:52:00.936Z,3.30
2023-02-06T00:54:46.624Z,3.30
2023-02-06T00:57:31.899Z,3.30
2023-02-06T01:00:17.551Z,3.30
2023-02-06T01:03:03.095Z,3.30
2023-02-06T01:05:48.535Z,3.20
2023-02-06T01:08:34.588Z,3.20
2023-02-06T01:11:21.571Z,3.10
2023-02-06T01:14:07.412Z,3.10
2023-02-06T01:16:52.768Z,3.00
2023-02-06T01:19:38.782Z,3.00
2023-02-06T01:22:24.446Z,3.00
2023-02-06T01:25:10.178Z,3.00
2023-02-06T01:27:56.424Z,2.90
2023-02-06T01:30:41.976Z,2.90
2023-02-06T01:33:27.955Z,2.80
2023-02-06T01:36:14.179Z,2.80
2023-02-06T01:38:59.742Z,2.80
2023-02-06T01:41:45.585Z,2.80
2023-02-06T01:44:31.492Z,2.70
2023-02-06T01:47:17.942Z,2.70
2023-02-06T01:50:03.365Z,2.80
2023-02-06T01:52:48.983Z,2.70
2023-02-06T01:55:35.804Z,2.70
2023-02-06T01:58:26.165Z,2.70
2023-02-06T02:01:11.570Z,2.70
2023-02-06T02:04:01.872Z,2.70
2023-02-06T02:06:52.323Z,2.70
2023-02-06T02:09:37.878Z,2.70
2023-02-06T02:12:23.304Z,2.70
2023-02-06T02:15:08.772Z,2.60
2023-02-06T02:18:03.034Z,2.70
2023-02-06T02:21:04.567Z,2.60
2023-02-06T02:23:55.004Z,2.60
2023-02-06T02:26:55.630Z,2.50
2023-02-06T02:29:50.322Z,2.50
2023-02-06T02:32:35.725Z,2.50
2023-02-06T02:35:21.110Z,2.50
2023-02-06T02:38:26.745Z,2.40
2023-02-06T02:41:15.432Z,2.40
2023-02-06T02:44:08.820Z,2.40
2023-02-06T02:46:57.078Z,2.40
2023-02-06T02:49:43.793Z,2.30
2023-02-06T02:52:29.344Z,2.40
2023-02-06T02:55:20.809Z,2.40
2023-02-06T02:58:09.465Z,2.40
2023-02-06T03:00:57.837Z,2.40
2023-02-06T03:03:44.908Z,2.40
2023-02-06T03:06:44.665Z,2.40
2023-02-06T03:09:46.059Z,2.40
2023-02-06T03:12:48.263Z,2.40
2023-02-06T03:15:43.245Z,2.40
2023-02-06T03:18:35.865Z,2.40
2023-02-06T03:21:21.878Z,2.40
2023-02-06T03:24:10.691Z,2.40
2023-02-06T03:27:00.467Z,2.30
2023-02-06T03:29:49.311Z,2.30
2023-02-06T03:32:36.716Z,2.30
2023-02-06T03:35:25.306Z,2.30
2023-02-06T03:38:10.936Z,2.30
2023-02-06T03:40:57.996Z,2.30
2023-02-06T03:43:45.542Z,2.40
2023-02-06T03:46:32.702Z,2.40
2023-02-06T03:49:19.112Z,2.40
2023-02-06T03:52:10.278Z,2.40
2023-02-06T03:54:59.450Z,2.40
2023-02-06T03:57:46.928Z,2.40
2023-02-06T04:00:33.426Z,2.40
2023-02-06T04:03:21.495Z,2.30
2023-02-06T04:06:07.040Z,2.30
2023-02-06T04:08:52.693Z,2.40
2023-02-06T04:11:38.048Z,2.30
2023-02-06T04:14:23.280Z,2.10
2023-02-06T04:17:09.275Z,2.10
2023-02-06T04:19:54.531Z,2.00
2023-02-06T04:22:40.307Z,1.90
2023-02-06T04:25:26.125Z,1.90
2023-02-06T04:28:11.559Z,1.90
2023-02-06T04:30:57.011Z,1.90
2023-02-06T04:33:42.648Z,2.00
2023-02-06T04:36:28.343Z,2.10
2023-02-06T04:39:13.793Z,2.00
2023-02-06T04:41:59.168Z,2.10
2023-02-06T04:44:45.425Z,2.00
2023-02-06T04:47:31.285Z,2.00
2023-02-06T04:50:18.154Z,2.00
2023-02-06T04:53:03.820Z,2.00
2023-02-06T04:55:49.196Z,1.90
2023-02-06T04:58:35.087Z,1.80
2023-02-06T05:01:20.898Z,1.80
2023-02-06T05:04:06.496Z,1.80
2023-02-06T05:06:52.499Z,1.80
2023-02-06T05:09:38.053Z,1.80
2023-02-06T05:12:24.661Z,1.80
2023-02-06T05:15:10.483Z,1.90
2023-02-06T05:17:55.935Z,1.90
2023-02-06T05:20:42.857Z,1.90
2023-02-06T05:23:28.448Z,1.80
2023-02-06T05:26:14.011Z,1.80
2023-02-06T05:28:59.750Z,1.80
2023-02-06T05:31:45.622Z,1.80
2023-02-06T05:34:31.627Z,1.70
2023-02-06T05:37:17.195Z,1.60
2023-02-06T05:40:02.770Z,1.60
2023-02-06T05:42:48.536Z,1.60
2023-02-06T05:45:35.780Z,1.60
2023-02-06T05:48:21.472Z,1.60
2023-02-06T05:51:06.890Z,1.60
2023-02-06T05:53:52.380Z,1.60
2023-02-06T05:56:37.761Z,1.60
2023-02-06T05:59:23.947Z,1.60
2023-02-06T06:02:09.860Z,1.60
2023-02-06T06:04:55.275Z,1.60
2023-02-06T06:07:40.720Z,1.60
2023-02-06T06:10:26.456Z,1.60
2023-02-06T06:13:11.877Z,1.50
2023-02-06T06:15:57.236Z,1.50
2023-02-06T06:18:42.797Z,1.50
2023-02-06T06:21:28.238Z,1.50
2023-02-06T06:24:13.914Z,1.50
2023-02-06T06:26:59.744Z,1.50
2023-02-06T06:29:45.300Z,1.40
2023-02-06T06:32:30.700Z,1.40
2023-02-06T06:35:18.118Z,1.50
2023-02-06T06:38:28.898Z,1.50
2023-02-06T06:41:18.110Z,1.50
2023-02-06T06:44:03.634Z,1.50
2023-02-06T06:46:49.058Z,1.50
2023-02-06T06:49:34.942Z,1.50
2023-02-06T06:52:25.254Z,1.50
2023-02-06T06:55:11.457Z,1.50
2023-02-06T06:57:56.777Z,1.60
2023-02-06T07:00:42.728Z,1.60
2023-02-06T07:03:28.297Z,1.60
2023-02-06T07:06:14.165Z,1.60
2023-02-06T07:09:00.052Z,1.70
2023-02-06T07:11:45.799Z,1.70
2023-02-06T07:14:31.325Z,1.70
2023-02-06T07:17:16.997Z,1.80
2023-02-06T07:20:03.192Z,1.80
2023-02-06T07:22:50.281Z,1.90
2023-02-06T07:25:36.011Z,1.90
2023-02-06T07:28:22.658Z,2.00
2023-02-06T07:31:08.483Z,2.10
2023-02-06T07:33:53.881Z,2.10
2023-02-06T07:36:39.148Z,2.20
2023-02-06T07:39:24.449Z,2.20
2023-02-06T07:42:12.003Z,2.30
2023-02-06T07:45:19.561Z,2.30
2023-02-06T07:48:05.450Z,2.30
2023-02-06T07:50:50.720Z,2.30
2023-02-06T07:53:37.186Z,2.30
2023-02-06T07:56:23.612Z,2.30
2023-02-06T07:59:09.235Z,2.40
2023-02-06T08:01:54.941Z,2.50
2023-02-06T08:04:40.346Z,2.50
2023-02-06T08:07:25.997Z,2.70
2023-02-06T08:10:12.372Z,2.80
2023-02-06T08:13:02.972Z,3.00
2023-02-06T08:16:05.683Z,3.10
2023-02-06T08:18:51.817Z,3.40
2023-02-06T08:21:37.697Z,3.70
2023-02-06T08:24:23.224Z,4.10
2023-02-06T08:27:08.628Z,4.30
2023-02-06T08:29:54.220Z,4.50
2023-02-06T08:32:39.720Z,4.80
2023-02-06T08:35:25.335Z,5.10
2023-02-06T08:38:10.494Z,5.10
2023-02-06T08:40:56.115Z,5.10
2023-02-06T08:43:41.712Z,5.00
2023-02-06T08:46:29.181Z,5.00
2023-02-06T08:49:16.462Z,5.30
2023-02-06T08:52:01.973Z,5.60
2023-02-06T08:54:47.319Z,5.70
2023-02-06T08:57:32.587Z,5.70
2023-02-06T09:00:18.211Z,5.80
2023-02-06T09:03:05.629Z,5.90
2023-02-06T09:06:18.006Z,6.00
2023-02-06T09:09:04.318Z,6.10
2023-02-06T09:11:50.181Z,5.80
2023-02-06T09:14:35.734Z,5.80
2023-02-06T09:17:21.227Z,5.80
2023-02-06T09:20:07.447Z,5.80
2023-02-06T09:22:53.347Z,5.70
2023-02-06T09:25:39.257Z,6.00
2023-02-06T09:28:25.013Z,6.30
2023-02-06T09:31:11.591Z,6.40
2023-02-06T09:33:57.717Z,6.20
2023-02-06T09:36:43.499Z,5.90
2023-02-06T09:39:29.240Z,5.80
2023-02-06T09:42:17.704Z,5.80
2023-02-06T09:45:14.022Z,6.10
2023-02-06T09:48:22.468Z,6.20
2023-02-06T09:51:07.821Z,6.50
2023-02-06T09:53:56.306Z,6.20
2023-02-06T09:56:47.868Z,6.20
2023-02-06T09:59:43.360Z,6.20
2023-02-06T10:02:37.830Z,6.30
2023-02-06T10:05:38.713Z,6.50
2023-02-06T10:08:28.271Z,6.50
2023-02-06T10:11:32.467Z,6.80
2023-02-06T10:14:40.905Z,6.90
2023-02-06T10:17:26.481Z,7.00
2023-02-06T10:20:15.525Z,7.30
2023-02-06T10:23:10.397Z,7.50
2023-02-06T10:26:17.346Z,7.40
2023-02-06T10:29:02.971Z,7.50
2023-02-06T10:32:07.727Z,7.40
2023-02-06T10:34:58.684Z,7.50
2023-02-06T10:38:04.827Z,7.30
2023-02-06T10:40:57.915Z,7.40
2023-02-06T10:43:48.923Z,7.50
2023-02-06T10:46:54.497Z,7.60
2023-02-06T10:49:48.046Z,7.70
2023-02-06T10:52:35.137Z,7.70
2023-02-06T10:55:24.765Z,7.70
2023-02-06T10:58:16.059Z,8.00
2023-02-06T11:01:02.158Z,8.00
2023-02-06T11:03:54.446Z,8.00
2023-02-06T11:06:40.412Z,8.00
2023-02-06T11:09:26.102Z,8.00
2023-02-06T11:12:23.529Z,7.90
2023-02-06T11:15:22.168Z,7.60
2023-02-06T11:18:10.900Z,7.90
2023-02-06T11:20:57.146Z,8.10
2023-02-06T11:23:43.130Z,8.20
2023-02-06T11:26:28.704Z,8.30
2023-02-06T11:29:16.900Z,8.20
2023-02-06T11:32:04.187Z,8.00
2023-02-06T11:35:10.014Z,8.20
2023-02-06T11:38:05.376Z,8.20
2023-02-06T11:41:05.111Z,8.10
2023-02-06T11:43:51.476Z,8.10
2023-02-06T11:46:37.305Z,7.90
2023-02-06T11:49:27.289Z,7.80
2023-02-06T11:52:32.289Z,7.80
2023-02-06T11:55:36.784Z,8.00
2023-02-06T11:58:24.950Z,7.80
2023-02-06T12:01:16.891Z,7.90
2023-02-06T12:04:02.824Z,8.00
2023-02-06T12:06:48.359Z,8.20
2023-02-06T12:09:33.937Z,8.40
2023-02-06T12:12:22.797Z,8.30
2023-02-06T12:15:43.680Z,8.30
2023-02-06T12:18:27.172Z,8.20
2023-02-06T12:21:15.900Z,8.20
2023-02-06T12:24:02.680Z,8.30
2023-02-06T12:26:48.719Z,8.40
2023-02-06T12:29:36.516Z,8.50
2023-02-06T12:32:24.769Z,8.50
2023-02-06T12:35:16.499Z,8.50
2023-02-06T12:38:11.175Z,8.60
2023-02-06T12:41:32.365Z,8.70
2023-02-06T12:44:17.862Z,8.90
2023-02-06T12:47:20.155Z,8.80
2023-02-06T12:50:05.966Z,8.60
2023-02-06T12:52:53.733Z,8.50
2023-02-06T12:55:41.791Z,8.20
2023-02-06T12:58:28.143Z,8.10
2023-02-06T13:01:34.372Z,8.00
2023-02-06T13:04:32.220Z,8.00
2023-02-06T13:07:20.172Z,8.10
2023-02-06T13:10:06.741Z,7.80
2023-02-06T13:12:53.645Z,7.80
2023-02-06T13:15:40.205Z,7.80
2023-02-06T13:18:41.760Z,7.90
2023-02-06T13:21:32.453Z,7.90
2023-02-06T13:24:19.421Z,8.10
2023-02-06T13:27:08.355Z,8.00
2023-02-06T13:29:54.099Z,7.90
2023-02-06T13:32:48.017Z,8.00
2023-02-06T13:35:33.778Z,7.90
2023-02-06T13:38:28.597Z,8.00
2023-02-06T13:41:17.069Z,8.10
2023-02-06T13:44:15.254Z,8.30
2023-02-06T13:47:09.964Z,8.30
2023-02-06T13:49:55.632Z,8.40
2023-02-06T13:52:41.926Z,8.20
2023-02-06T13:55:46.611Z,8.10
2023-02-06T13:58:41.388Z,8.10
2023-02-06T14:01:30.735Z,8.10
2023-02-06T14:04:25.177Z,8.00
2023-02-06T14:07:21.868Z,8.10
2023-02-06T14:10:49.882Z,8.10
2023-02-06T14:13:35.886Z,8.00
2023-02-06T14:16:39.979Z,8.00
2023-02-06T14:19:34.580Z,8.00
2023-02-06T14:22:42.750Z,7.90
2023-02-06T14:25:38.073Z,8.00
2023-02-06T14:28:34.653Z,7.90
2023-02-06T14:31:23.447Z,8.00
2023-02-06T14:34:22.820Z,8.00
2023-02-06T14:37:08.262Z,7.90
2023-02-06T14:39:55.078Z,7.80
2023-02-06T14:42:41.941Z,8.70
2023-02-06T14:45:41.957Z,7.90
2023-02-06T14:48:35.697Z,8.00
2023-02-06T14:51:23.326Z,8.00
2023-02-06T14:54:27.954Z,7.90
2023-02-06T14:57:20.453Z,8.00
2023-02-06T15:00:16.701Z,8.10
2023-02-06T15:03:04.171Z,8.00
2023-02-06T15:06:05.783Z,7.90
2023-02-06T15:08:51.582Z,7.90
2023-02-06T15:11:37.314Z,7.90
2023-02-06T15:14:33.546Z,7.70
2023-02-06T15:17:20.832Z,7.70
2023-02-06T15:20:22.986Z,7.80
2023-02-06T15:23:18.143Z,7.70
2023-02-06T15:26:15.981Z,7.70
2023-02-06T15:29:02.766Z,7.70
2023-02-06T15:31:49.106Z,7.50
2023-02-06T15:34:34.756Z,7.50
2023-02-06T15:37:34.360Z,7.50
2023-02-06T15:40:22.968Z,7.40
2023-02-06T15:43:11.553Z,7.30
2023-02-06T15:45:58.630Z,7.30
2023-02-06T15:48:48.880Z,7.20
2023-02-06T15:51:49.048Z,7.20
2023-02-06T15:54:34.980Z,7.00
2023-02-06T15:57:20.675Z,6.90
2023-02-06T16:00:09.694Z,6.80
2023-02-06T16:03:02.681Z,6.80
2023-02-06T16:05:48.141Z,6.70
2023-02-06T16:08:35.153Z,6.70
2023-02-06T16:11:39.058Z,6.50
2023-02-06T16:14:35.302Z,6.40
2023-02-06T16:17:32.161Z,6.40
2023-02-06T16:20:37.270Z,6.40
2023-02-06T16:23:30.791Z,6.40
2023-02-06T16:26:22.401Z,6.30
2023-02-06T16:29:08.139Z,6.30
2023-02-06T16:32:14.848Z,6.30
2023-02-06T16:35:01.314Z,6.20
2023-02-06T16:37:48.312Z,6.10
2023-02-06T16:40:33.874Z,6.20
2023-02-06T16:43:20.226Z,6.20
2023-02-06T16:46:05.928Z,6.10
2023-02-06T16:48:52.028Z,6.10
2023-02-06T16:51:39.088Z,6.10
2023-02-06T16:54:24.797Z,6.10
2023-02-06T16:57:20.320Z,6.10
2023-02-06T17:00:09.427Z,6.00
2023-02-06T17:02:55.355Z,6.10
2023-02-06T17:05:41.639Z,6.00
2023-02-06T17:08:27.488Z,6.00
2023-02-06T17:11:13.654Z,5.80
2023-02-06T17:13:59.122Z,5.80
2023-02-06T17:16:44.719Z,5.70
2023-02-06T17:19:30.496Z,5.60
2023-02-06T17:22:16.841Z,5.50
2023-02-06T17:25:02.122Z,5.50
2023-02-06T17:27:47.989Z,5.50
2023-02-06T17:30:34.962Z,5.50
2023-02-06T17:33:20.949Z,5.40
2023-02-06T17:36:08.047Z,5.40
2023-02-06T17:38:53.632Z,5.40
2023-02-06T17:41:39.308Z,5.20
2023-02-06T17:44:24.853Z,5.20
2023-02-06T17:47:11.649Z,5.20
2023-02-06T17:49:58.234Z,5.20
2023-02-06T17:52:44.051Z,5.10
2023-02-06T17:55:29.722Z,5.00
2023-02-06T17:58:15.429Z,5.00
2023-02-06T18:01:01.118Z,5.00
2023-02-06T18:03:48.071Z,5.00
2023-02-06T18:06:36.338Z,4.90
2023-02-06T18:09:22.478Z,4.80
2023-02-06T18:12:08.049Z,4.80
2023-02-06T18:14:53.835Z,4.80
2023-02-06T18:17:39.496Z,4.80
2023-02-06T18:20:25.220Z,4.80
2023-02-06T18:23:10.964Z,4.90
2023-02-06T18:26:00.657Z,4.90
2023-02-06T18:28:46.553Z,5.00
2023-02-06T18:31:33.331Z,4.90
2023-02-06T18:34:20.458Z,4.90
2023-02-06T18:37:07.629Z,5.00
2023-02-06T18:39:55.087Z,4.90
2023-02-06T18:42:53.975Z,4.80
2023-02-06T18:45:40.163Z,4.70
2023-02-06T18:48:25.892Z,4.50
2023-02-06T18:51:11.144Z,4.60
2023-02-06T18:53:57.131Z,4.60
2023-02-06T18:56:42.426Z,4.50
2023-02-06T18:59:28.216Z,4.40
2023-02-06T19:02:14.228Z,4.20
2023-02-06T19:04:59.610Z,4.10
2023-02-06T19:07:52.304Z,4.00
2023-02-06T19:10:39.622Z,3.90
2023-02-06T19:13:25.159Z,3.80
2023-02-06T19:16:12.506Z,3.90
2023-02-06T19:18:58.668Z,3.80
2023-02-06T19:21:44.564Z,3.70
2023-02-06T19:24:31.309Z,3.70
2023-02-06T19:27:16.671Z,3.60
2023-02-06T19:30:02.301Z,3.60
2023-02-06T19:32:48.725Z,3.60
2023-02-06T19:35:34.573Z,3.60
2023-02-06T19:38:19.753Z,3.70
2023-02-06T19:41:13.295Z,3.80
2023-02-06T19:44:01.086Z,3.70
2023-02-06T19:46:46.774Z,3.70
2023-02-06T19:49:32.083Z,3.60
2023-02-06T19:52:17.336Z,3.50
2023-02-06T19:55:02.941Z,3.40
2023-02-06T19:57:48.322Z,3.30
2023-02-06T20:00:33.662Z,3.20
2023-02-06T20:03:18.981Z,3.10
2023-02-06T20:06:06.084Z,3.10
2023-02-06T20:08:51.481Z,3.10
2023-02-06T20:11:36.932Z,3.10
2023-02-06T20:14:22.835Z,3.10
2023-02-06T20:17:08.440Z,3.30
2023-02-06T20:19:54.063Z,3.30
2023-02-06T20:22:40.057Z,3.30
2023-02-06T20:25:25.725Z,3.20
2023-02-06T20:28:11.476Z,3.30
2023-02-06T20:30:57.359Z,3.30
2023-02-06T20:33:43.570Z,3.40
2023-02-06T20:36:29.942Z,3.40
2023-02-06T20:39:16.130Z,3.50
2023-02-06T20:42:01.644Z,3.60
2023-02-06T20:44:47.106Z,3.50
2023-02-06T20:47:32.430Z,3.50
2023-02-06T20:50:17.892Z,3.60
2023-02-06T20:53:03.065Z,3.50
2023-02-06T20:55:48.712Z,3.50
2023-02-06T20:58:33.964Z,3.40
2023-02-06T21:01:22.293Z,3.40
2023-02-06T21:04:09.206Z,3.40
2023-02-06T21:06:55.456Z,3.40
2023-02-06T21:09:41.157Z,3.40
2023-02-06T21:12:26.964Z,3.40
2023-02-06T21:15:12.652Z,3.40
2023-02-06T21:17:58.203Z,3.30
2023-02-06T21:20:43.939Z,3.40
2023-02-06T21:23:29.506Z,3.40
2023-02-06T21:26:17.290Z,3.40
2023-02-06T21:29:04.242Z,3.30
2023-02-06T21:31:52.311Z,3.20
2023-02-06T21:34:41.993Z,3.20
2023-02-06T21:37:27.540Z,3.30
2023-02-06T21:40:12.781Z,3.20
2023-02-06T21:42:58.195Z,3.10
2023-02-06T21:45:44.299Z,3.20
2023-02-06T21:48:30.199Z,3.20
2023-02-06T21:51:16.837Z,3.20
2023-02-06T21:54:02.565Z,3.20
2023-02-06T21:56:48.027Z,3.20
2023-02-06T21:59:34.208Z,3.10
2023-02-06T22:02:19.476Z,3.00
2023-02-06T22:05:07.118Z,2.90
2023-02-06T22:07:52.771Z,2.90
2023-02-06T22:10:38.609Z,2.80
2023-02-06T22:13:24.585Z,2.80
2023-02-06T22:16:11.399Z,2.70
2023-02-06T22:18:57.213Z,2.80
2023-02-06T22:21:43.067Z,2.90
2023-02-06T22:24:28.422Z,2.90
2023-02-06T22:27:13.796Z,2.90
2023-02-06T22:29:59.595Z,3.00
2023-02-06T22:32:44.894Z,2.90
2023-02-06T22:35:30.341Z,2.90
2023-02-06T22:38:15.630Z,2.80
2023-02-06T22:41:02.519Z,2.70
2023-02-06T22:43:49.220Z,2.70
2023-02-06T22:46:35.916Z,2.60
2023-02-06T22:49:22.109Z,2.60
2023-02-06T22:52:29.556Z,2.60
2023-02-06T22:55:15.150Z,2.60
2023-02-06T22:58:02.931Z,2.60
2023-02-06T23:00:48.809Z,2.70
2023-02-06T23:03:34.495Z,2.70
2023-02-06T23:06:20.731Z,2.70
2023-02-06T23:09:09.825Z,2.60
2023-02-06T23:11:58.400Z,2.60
2023-02-06T23:14:44.402Z,2.70
2023-02-06T23:17:29.866Z,2.70
2023-02-06T23:20:15.577Z,2.70
2023-02-06T23:23:01.349Z,2.60
2023-02-06T23:25:46.576Z,2.70
2023-02-06T23:28:32.192Z,2.60
2023-02-06T23:31:17.955Z,2.60
2023-02-06T23:34:03.365Z,2.50
2023-02-06T23:36:49.033Z,2.50
2023-02-06T23:39:34.828Z,2.40
2023-02-06T23:42:20.308Z,2.40
2023-02-06T23:45:06.499Z,2.40
2023-02-06T23:47:52.602Z,2.40
2023-02-06T23:50:38.247Z,2.40
2023-02-06T23:53:24.718Z,2.40
2023-02-06T23:56:14.372Z,2.40
2023-02-06T23:59:00.885Z,2.50
